Time;durP1;ratioP1;P1;durP2;ratioP2;P2;SDS_P1;SDS_P2;PMS_P1;PMS_P2;Temp;Humidity;BMP_temperature;BMP_pressure;BME280_temperature;BME280_humidity;BME280_pressure;Samples;Min_cycle;Max_cycle;Signal;HPM_P1;HPM_P2
2023/10/23 00:00:08;;;;;;;2.23;1.87;;;;;;;22.26;62.66;97262.81;5017288;28;20205;-23
2023/10/23 00:02:38;;;;;;;1.80;1.70;;;;;;;22.27;62.63;97254.31;5027803;28;20205;-32
2023/10/23 00:05:05;;;;;;;1.67;1.57;;;;;;;22.24;62.56;97245.69;5030430;28;20208;-23
2023/10/23 00:07:32;;;;;;;1.93;1.80;;;;;;;22.28;62.67;97250.03;5027053;28;20323;-23
2023/10/23 00:09:59;;;;;;;1.70;1.60;;;;;;;22.27;62.73;97251.75;5028390;28;20226;-23
2023/10/23 00:12:25;;;;;;;1.60;1.50;;;;;;;22.27;62.68;97256.88;5030991;28;20212;-23
2023/10/23 00:14:52;;;;;;;1.60;1.50;;;;;;;22.26;62.53;97257.69;5029753;28;20205;-23
2023/10/23 00:17:18;;;;;;;1.60;1.50;;;;;;;22.28;62.64;97257.72;5023902;28;20289;-25
2023/10/23 00:19:45;;;;;;;1.70;1.60;;;;;;;22.26;62.35;97259.41;5030349;28;20570;-23
2023/10/23 00:22:11;;;;;;;1.90;1.80;;;;;;;22.28;62.64;97265.41;5027634;28;20553;-23
2023/10/23 00:24:38;;;;;;;1.90;1.70;;;;;;;22.26;62.68;97273.06;5028132;28;20214;-24
2023/10/23 00:27:05;;;;;;;1.90;1.80;;;;;;;22.26;62.60;97287.56;5030524;28;20221;-23
2023/10/23 00:29:31;;;;;;;1.93;1.83;;;;;;;22.26;62.67;97285.84;5030790;28;20283;-23
2023/10/23 00:31:58;;;;;;;1.73;1.63;;;;;;;22.26;62.70;97290.97;5027472;28;20212;-23
2023/10/23 00:34:25;;;;;;;2.10;1.83;;;;;;;22.23;62.62;97285.78;5034648;28;20649;-25
2023/10/23 00:36:51;;;;;;;2.00;1.90;;;;;;;22.26;62.36;97290.97;5033320;28;20654;-23
2023/10/23 00:39:18;;;;;;;1.73;1.63;;;;;;;22.26;62.51;97282.44;5034109;28;20225;-23
2023/10/23 00:41:44;;;;;;;1.80;1.70;;;;;;;22.27;62.63;97289.28;5034161;28;20229;-23
2023/10/23 00:44:11;;;;;;;1.50;1.40;;;;;;;22.26;62.71;97283.28;5031761;28;20203;-24
2023/10/23 00:46:38;;;;;;;2.00;1.80;;;;;;;22.27;62.50;97284.16;5030799;28;20213;-24
2023/10/23 00:49:05;;;;;;;1.60;1.50;;;;;;;22.26;62.50;97275.63;5016791;28;20716;-28
2023/10/23 00:51:31;;;;;;;1.70;1.60;;;;;;;22.26;62.58;97280.72;5031040;28;20938;-24
2023/10/23 00:53:59;;;;;;;1.60;1.50;;;;;;;22.27;62.44;97273.94;5027833;28;20197;-24
2023/10/23 00:56:26;;;;;;;1.67;1.57;;;;;;;22.25;62.63;97284.13;5015424;28;20197;-23
2023/10/23 00:58:52;;;;;;;1.80;1.70;;;;;;;22.21;62.60;97268.66;5012931;28;20225;-28
2023/10/23 01:01:19;;;;;;;1.97;1.87;;;;;;;22.24;62.72;97289.22;5014614;28;20578;-23
2023/10/23 01:03:46;;;;;;;2.23;2.03;;;;;;;22.26;62.64;97285.84;4999923;28;20206;-24
2023/10/23 01:06:12;;;;;;;1.70;1.60;;;;;;;22.25;62.65;97291.81;5020943;28;20723;-23
2023/10/23 01:08:39;;;;;;;1.83;1.73;;;;;;;22.26;62.59;97285.00;5027582;28;20226;-24
2023/10/23 01:11:06;;;;;;;1.77;1.67;;;;;;;22.26;62.64;97298.66;5032277;28;20636;-23
2023/10/23 01:13:33;;;;;;;1.87;1.60;;;;;;;22.25;62.75;97291.81;5033762;28;20198;-23
2023/10/23 01:15:59;;;;;;;1.70;1.60;;;;;;;22.26;62.62;97287.56;5033366;28;20202;-24
2023/10/23 01:18:26;;;;;;;1.77;1.67;;;;;;;22.26;62.60;97288.41;5033271;28;20225;-24
2023/10/23 01:20:52;;;;;;;1.50;1.40;;;;;;;22.26;62.41;97287.56;5027360;28;20913;-24
2023/10/23 01:23:21;;;;;;;1.83;1.60;;;;;;;22.26;62.47;97282.44;5031642;28;20296;-24
2023/10/23 01:25:48;;;;;;;1.70;1.60;;;;;;;22.25;62.71;97288.38;4999968;28;20292;-23
2023/10/23 01:28:14;;;;;;;1.70;1.60;;;;;;;22.26;62.68;97288.41;5023714;28;20233;-26
2023/10/23 01:30:41;;;;;;;1.60;1.50;;;;;;;22.26;62.42;97285.84;5032763;28;20289;-25
2023/10/23 01:33:08;;;;;;;1.80;1.70;;;;;;;22.26;62.74;97279.88;5031879;28;20205;-23
2023/10/23 01:35:34;;;;;;;1.80;1.70;;;;;;;22.25;62.65;97280.69;5033585;28;20213;-23
2023/10/23 01:38:01;;;;;;;2.00;1.80;;;;;;;22.25;62.52;97280.69;5033364;28;20226;-24
2023/10/23 01:40:27;;;;;;;1.80;1.70;;;;;;;22.25;62.68;97280.69;5033070;28;20260;-25
2023/10/23 01:42:54;;;;;;;1.90;1.80;;;;;;;22.24;62.71;97287.53;5032217;28;20233;-24
2023/10/23 01:45:21;;;;;;;1.90;1.80;;;;;;;22.24;62.53;97287.53;5025895;28;20221;-24
2023/10/23 01:47:47;;;;;;;1.80;1.70;;;;;;;22.25;62.70;97285.81;5028253;28;20731;-25
2023/10/23 01:50:14;;;;;;;2.20;2.00;;;;;;;22.25;62.43;97278.13;5015071;28;20203;-24
2023/10/23 01:52:41;;;;;;;1.60;1.50;;;;;;;22.24;62.56;97289.22;5025003;28;20398;-23
2023/10/23 01:55:08;;;;;;;1.90;1.80;;;;;;;22.24;62.67;97295.22;5033056;28;20213;-23
2023/10/23 01:57:35;;;;;;;2.00;1.80;;;;;;;22.24;62.48;97292.66;5025190;28;20293;-23
2023/10/23 02:00:05;;;;;;;1.80;1.70;;;;;;;22.24;62.73;97292.66;5025123;28;20218;-24
2023/10/23 02:02:32;;;;;;;1.53;1.43;;;;;;;22.24;62.60;97292.66;5026621;28;20763;-23
2023/10/23 02:04:59;;;;;;;1.80;1.70;;;;;;;22.25;62.65;97290.94;5020306;28;20201;-23
2023/10/23 02:07:27;;;;;;;1.70;1.60;;;;;;;22.26;62.61;97297.81;5024419;28;20217;-24
2023/10/23 02:09:54;;;;;;;1.83;1.73;;;;;;;22.24;62.54;97295.22;5026554;28;20725;-23
2023/10/23 02:12:20;;;;;;;2.27;2.07;;;;;;;22.26;62.62;97297.81;5024232;28;20202;-23
2023/10/23 02:14:50;;;;;;;1.80;1.70;;;;;;;22.25;62.62;97293.50;5032356;28;20205;-23
2023/10/23 02:17:17;;;;;;;1.80;1.70;;;;;;;22.23;62.60;97285.78;5027913;28;20198;-23
2023/10/23 02:19:43;;;;;;;1.80;1.70;;;;;;;22.24;62.57;97294.34;5031363;28;20252;-24
2023/10/23 02:22:10;;;;;;;1.90;1.80;;;;;;;22.23;62.64;97293.47;5031844;28;20197;-23
2023/10/23 02:24:36;;;;;;;1.73;1.63;;;;;;;22.24;62.94;97291.78;5025473;28;20740;-23
2023/10/23 02:27:03;;;;;;;2.17;1.97;;;;;;;22.24;62.71;97281.53;5024870;28;20217;-23
2023/10/23 02:29:30;;;;;;;2.00;1.90;;;;;;;22.25;62.68;97293.50;5028046;28;20254;-23
2023/10/23 02:31:56;;;;;;;1.80;1.70;;;;;;;22.23;62.67;97293.47;5022869;28;20230;-24
2023/10/23 02:34:23;;;;;;;1.80;1.70;;;;;;;22.24;62.54;97291.78;5031988;28;20193;-23
2023/10/23 02:36:50;;;;;;;1.80;1.70;;;;;;;22.22;62.50;97288.31;5025825;28;20574;-23
2023/10/23 02:39:16;;;;;;;1.53;1.43;;;;;;;22.24;62.65;97290.09;5025839;28;20221;-24
2023/10/23 02:41:43;;;;;;;1.90;1.80;;;;;;;22.23;62.70;97287.50;5014233;28;20207;-23
2023/10/23 02:44:10;;;;;;;1.70;1.60;;;;;;;22.23;62.60;97285.78;5022107;28;20675;-25
2023/10/23 02:46:40;;;;;;;2.40;1.80;;;;;;;22.24;62.51;97291.78;5032063;28;20682;-23
2023/10/23 02:49:07;;;;;;;1.77;1.67;;;;;;;22.24;62.67;97284.97;5028289;28;20469;-23
2023/10/23 02:51:33;;;;;;;1.93;1.73;;;;;;;22.24;62.74;97284.09;5020529;28;20615;-26
2023/10/23 02:54:00;;;;;;;1.60;1.50;;;;;;;22.24;62.57;97287.53;5031926;28;20201;-25
2023/10/23 02:56:27;;;;;;;2.27;2.07;;;;;;;22.24;62.72;97290.09;5028434;28;20570;-23
2023/10/23 02:58:53;;;;;;;1.87;1.77;;;;;;;22.24;62.73;97286.66;5024223;28;20719;-24
2023/10/23 03:01:21;;;;;;;1.90;1.70;;;;;;;22.24;62.70;97291.78;5031444;28;20295;-22
2023/10/23 03:03:48;;;;;;;1.80;1.70;;;;;;;22.23;62.62;97290.06;5022911;28;20645;-23
2023/10/23 03:06:15;;;;;;;1.80;1.70;;;;;;;22.24;62.65;97289.22;5031349;28;20205;-24
2023/10/23 03:08:41;;;;;;;1.80;1.70;;;;;;;22.23;62.59;97284.94;5026540;28;20395;-24
2023/10/23 03:11:08;;;;;;;1.70;1.60;;;;;;;22.23;62.62;97284.94;5020994;28;20632;-23
2023/10/23 03:13:35;;;;;;;1.97;1.83;;;;;;;22.23;62.65;97290.06;5026371;28;20653;-23
2023/10/23 03:16:02;;;;;;;1.90;1.80;;;;;;;22.23;62.68;97292.63;5023909;28;20206;-23
2023/10/23 03:18:29;;;;;;;1.90;1.70;;;;;;;22.23;62.66;97292.63;5027987;28;20217;-23
2023/10/23 03:20:59;;;;;;;1.70;1.60;;;;;;;22.22;62.62;97291.75;5020645;28;20234;-22
2023/10/23 03:23:30;;;;;;;1.83;1.73;;;;;;;22.23;62.69;97298.59;5031443;28;20619;-23
2023/10/23 03:25:57;;;;;;;1.63;1.53;;;;;;;22.24;62.74;97302.00;5019060;28;20209;-22
2023/10/23 03:28:23;;;;;;;1.80;1.70;;;;;;;22.23;62.63;97297.75;5029793;28;20319;-23
2023/10/23 03:30:50;;;;;;;1.80;1.70;;;;;;;22.23;62.61;97306.25;5030495;28;20256;-23
2023/10/23 03:33:17;;;;;;;1.80;1.70;;;;;;;22.23;62.63;97293.47;5022341;28;20212;-23
2023/10/23 03:35:44;;;;;;;1.70;1.60;;;;;;;22.23;62.75;97296.03;5024372;28;20201;-23
2023/10/23 03:38:12;;;;;;;2.90;1.80;;;;;;;22.23;62.73;97292.63;5026388;28;20221;-22
2023/10/23 03:40:38;;;;;;;1.77;1.67;;;;;;;22.23;62.66;97290.06;5030836;28;20253;-23
2023/10/23 03:43:05;;;;;;;1.83;1.70;;;;;;;22.22;62.51;97291.75;5023505;28;20260;-23
2023/10/23 03:45:35;;;;;;;1.90;1.80;;;;;;;22.23;62.46;97295.19;5024311;28;20205;-22
2023/10/23 03:48:01;;;;;;;1.87;1.67;;;;;;;22.22;62.57;97295.97;5025286;28;20221;-22
2023/10/23 03:50:28;;;;;;;1.90;1.80;;;;;;;22.16;62.70;97288.16;5022828;28;20414;-26
2023/10/23 03:52:55;;;;;;;1.70;1.60;;;;;;;22.21;62.58;97297.69;5029218;28;20206;-22
2023/10/23 03:55:21;;;;;;;1.90;1.80;;;;;;;22.22;62.72;97301.97;5017718;28;20245;-23
2023/10/23 03:57:48;;;;;;;1.80;1.70;;;;;;;22.23;62.58;97300.28;5023264;28;20438;-23
2023/10/23 04:00:15;;;;;;;2.07;1.90;;;;;;;22.24;62.72;97302.00;5023489;28;20284;-30
2023/10/23 04:02:41;;;;;;;1.70;1.60;;;;;;;22.24;62.57;97302.00;5022192;28;20276;-24
2023/10/23 04:05:08;;;;;;;1.70;1.60;;;;;;;22.25;62.65;97307.16;5023234;28;20768;-23
2023/10/23 04:07:34;;;;;;;1.93;1.83;;;;;;;22.26;62.61;97306.31;5029571;28;20723;-24
2023/10/23 04:10:01;;;;;;;1.83;1.73;;;;;;;22.26;62.62;97303.78;5034931;28;20256;-23
2023/10/23 04:12:28;;;;;;;1.73;1.63;;;;;;;22.26;62.64;97301.22;5028954;28;20200;-23
2023/10/23 04:14:54;;;;;;;2.00;1.80;;;;;;;22.27;62.42;97307.22;5021593;28;20198;-24
2023/10/23 04:17:21;;;;;;;1.70;1.60;;;;;;;22.27;62.42;97302.97;5028911;28;20281;-28
2023/10/23 04:19:48;;;;;;;1.60;1.50;;;;;;;22.28;62.42;97306.38;5025030;28;20218;-25
2023/10/23 04:22:14;;;;;;;1.77;1.67;;;;;;;22.28;62.40;97302.13;5024087;28;20199;-23
2023/10/23 04:24:41;;;;;;;1.83;1.70;;;;;;;22.28;62.32;97306.38;5032336;28;20286;-22
2023/10/23 04:27:08;;;;;;;1.87;1.77;;;;;;;22.28;62.28;97311.47;5022673;28;20218;-23
2023/10/23 04:29:34;;;;;;;2.17;1.97;;;;;;;22.27;62.35;97307.22;5029830;28;20776;-23
2023/10/23 04:32:01;;;;;;;2.10;1.90;;;;;;;22.27;62.41;97302.09;5025884;28;20627;-23
2023/10/23 04:34:27;;;;;;;2.13;1.93;;;;;;;22.27;62.32;97297.84;5026781;28;20216;-23
2023/10/23 04:36:54;;;;;;;2.00;1.80;;;;;;;22.27;62.55;97297.84;5023898;28;20198;-24
2023/10/23 04:39:20;;;;;;;1.83;1.73;;;;;;;22.27;62.47;97304.66;5023816;28;20225;-24
2023/10/23 04:41:47;;;;;;;1.80;1.70;;;;;;;22.27;62.35;97307.22;5030345;28;20205;-25
2023/10/23 04:44:14;;;;;;;1.77;1.67;;;;;;;22.22;62.62;97301.09;5027675;28;20197;-24
2023/10/23 04:46:43;;;;;;;2.33;1.83;;;;;;;22.27;62.39;97309.78;5009454;28;20241;-24
2023/10/23 04:49:09;;;;;;;1.77;1.67;;;;;;;22.27;62.44;97315.75;5026083;28;20791;-24
2023/10/23 04:51:36;;;;;;;2.00;1.80;;;;;;;22.27;62.45;97309.78;5021237;28;20348;-23
2023/10/23 04:54:03;;;;;;;1.80;1.70;;;;;;;22.27;62.33;97309.78;5026723;28;20746;-23
2023/10/23 04:56:30;;;;;;;1.80;1.70;;;;;;;22.27;62.36;97310.66;5028495;28;20197;-23
2023/10/23 04:58:56;;;;;;;1.80;1.70;;;;;;;22.26;62.39;97303.78;5029584;28;20848;-23
2023/10/23 05:01:24;;;;;;;1.90;1.80;;;;;;;22.27;62.52;97299.53;5021666;28;20202;-23
2023/10/23 05:03:50;;;;;;;2.20;2.03;;;;;;;22.20;62.15;97287.44;5023895;28;20206;-23
2023/10/23 05:06:24;;;;;;;1.80;1.70;;;;;;;22.24;61.28;97290.09;5003987;28;20205;-23
2023/10/23 05:08:50;;;;;;;7.00;2.50;;;;;;;22.22;58.19;97289.19;5026332;28;20225;-22
2023/10/23 05:11:17;;;;;;;2.83;2.43;;;;;;;22.21;56.08;97295.13;5029752;28;20205;-28
2023/10/23 05:13:46;;;;;;;4.10;2.70;;;;;;;22.20;53.59;97295.09;5030653;28;20637;-23
2023/10/23 05:16:12;;;;;;;5.53;2.90;;;;;;;22.18;52.14;97292.50;5028906;28;20566;-23
2023/10/23 05:18:39;;;;;;;5.60;2.70;;;;;;;22.17;51.42;97289.91;5021959;28;20222;-23
2023/10/23 05:21:12;;;;;;;3.43;3.10;;;;;;;22.15;50.11;97292.44;5025168;28;20213;-24
2023/10/23 05:23:41;;;;;;;6.57;3.20;;;;;;;22.13;49.47;97288.97;5030478;28;20205;-23
2023/10/23 05:26:10;;;;;;;3.80;3.13;;;;;;;22.12;48.82;97288.94;5027546;28;20212;-23
2023/10/23 05:28:40;;;;;;;4.10;3.00;;;;;;;22.11;48.38;97290.63;5044000;22;20263;-28
2023/10/23 05:31:09;;;;;;;5.77;2.80;;;;;;;22.09;48.15;97287.19;4990911;28;20211;-26
2023/10/23 05:33:35;;;;;;;3.70;2.87;;;;;;;22.08;47.98;97282.88;4994300;28;20261;-27
2023/10/23 05:36:06;;;;;;;3.40;2.80;;;;;;;22.08;47.11;97292.25;4985773;28;20222;-29
2023/10/23 05:38:33;;;;;;;5.20;2.87;;;;;;;22.06;47.19;97297.34;4989532;28;20309;-26
2023/10/23 05:40:59;;;;;;;6.30;3.23;;;;;;;22.05;48.33;97292.19;4974630;28;20645;-30
2023/10/23 05:43:26;;;;;;;4.93;3.00;;;;;;;22.03;49.36;97288.72;4972179;28;20204;-29
2023/10/23 05:45:54;;;;;;;3.50;2.63;;;;;;;22.04;50.16;97295.56;4969255;28;20208;-26
2023/10/23 05:48:20;;;;;;;5.07;3.10;;;;;;;22.04;50.68;97298.13;4974475;28;20277;-31
2023/10/23 05:51:00;;;;;;;4.53;2.90;;;;;;;22.04;51.32;97300.69;4975943;28;20262;-34
2023/10/23 05:53:27;;;;;;;3.70;2.90;;;;;;;22.03;51.76;97291.28;4975911;28;20215;-29
2023/10/23 05:55:54;;;;;;;3.83;2.70;;;;;;;22.05;52.41;97294.75;4966319;28;20286;-28
2023/10/23 05:58:21;;;;;;;4.97;2.70;;;;;;;22.04;52.56;97296.44;4971625;28;20710;-27
2023/10/23 06:00:47;;;;;;;7.23;2.97;;;;;;;22.06;52.88;97293.91;4979959;28;20243;-31
2023/10/23 06:03:14;;;;;;;4.27;2.77;;;;;;;22.05;52.97;97294.75;4977078;28;20339;-27
2023/10/23 06:05:41;;;;;;;4.13;2.70;;;;;;;22.06;53.33;97294.78;4977574;28;20204;-32
2023/10/23 06:08:08;;;;;;;3.37;2.60;;;;;;;22.08;53.66;97299.94;4971158;28;20232;-27
2023/10/23 06:10:42;;;;;;;3.40;2.60;;;;;;;22.06;53.85;97299.91;4972520;28;20228;-29
2023/10/23 06:13:09;;;;;;;5.77;3.00;;;;;;;22.06;50.95;97305.03;4970977;28;20453;-26
2023/10/23 06:15:35;;;;;;;3.60;2.90;;;;;;;22.05;49.99;97299.88;4967757;28;20199;-26
2023/10/23 06:18:02;;;;;;;4.27;3.00;;;;;;;22.03;49.44;97297.28;4970095;28;20207;-34
2023/10/23 06:20:29;;;;;;;5.93;3.20;;;;;;;22.03;48.33;97301.50;4971377;28;20227;-26
2023/10/23 06:22:55;;;;;;;4.93;2.90;;;;;;;21.97;47.72;97297.13;4971677;28;20642;-26
2023/10/23 06:25:22;;;;;;;3.83;2.77;;;;;;;22.01;47.91;97306.59;4971939;28;20295;-29
2023/10/23 06:27:48;;;;;;;4.40;3.33;;;;;;;22.00;48.43;97311.69;4971349;28;20219;-29
2023/10/23 06:30:15;;;;;;;4.63;2.83;;;;;;;21.98;49.50;97306.53;4971151;28;20224;-27
2023/10/23 06:32:41;;;;;;;4.77;2.93;;;;;;;22.00;50.04;97314.25;4971926;28;20199;-27
2023/10/23 06:35:08;;;;;;;3.77;2.70;;;;;;;22.00;50.95;97312.56;4978335;28;20258;-33
2023/10/23 06:37:35;;;;;;;4.00;2.70;;;;;;;22.00;51.50;97317.69;4971867;28;20286;-27
2023/10/23 06:40:02;;;;;;;4.23;2.97;;;;;;;22.01;51.78;97318.50;4967306;28;20230;-26
2023/10/23 06:42:28;;;;;;;6.43;2.73;;;;;;;22.01;52.09;97309.16;4971608;28;20218;-29
2023/10/23 06:44:55;;;;;;;3.47;2.90;;;;;;;22.02;52.25;97317.72;4971407;28;20254;-27
2023/10/23 06:47:22;;;;;;;4.23;2.47;;;;;;;22.02;52.51;97321.13;4970670;28;20663;-26
2023/10/23 06:49:48;;;;;;;2.83;2.20;;;;;;;22.02;52.94;97317.72;4970757;28;20270;-28
2023/10/23 06:52:15;;;;;;;3.77;2.40;;;;;;;22.03;53.20;97330.53;4970533;28;20899;-28
2023/10/23 06:54:41;;;;;;;4.00;2.77;;;;;;;22.04;53.26;97327.16;4973068;28;20250;-29
2023/10/23 06:57:08;;;;;;;4.60;2.50;;;;;;;22.04;53.53;97328.81;4969628;28;20235;-28
2023/10/23 06:59:38;;;;;;;3.30;2.63;;;;;;;22.04;53.76;97322.03;4976176;28;20617;-31
2023/10/23 07:02:05;;;;;;;3.73;2.50;;;;;;;22.04;53.96;97329.69;4976578;28;20208;-26
2023/10/23 07:04:32;;;;;;;2.80;2.50;;;;;;;22.05;54.09;97330.56;4972150;28;20302;-27
2023/10/23 07:06:58;;;;;;;3.13;2.27;;;;;;;22.06;54.36;97342.53;4970643;28;20208;-29
2023/10/23 07:09:27;;;;;;;4.97;2.57;;;;;;;22.06;54.33;97350.22;4969908;28;20289;-26
2023/10/23 07:11:54;;;;;;;3.67;2.40;;;;;;;22.07;54.34;97354.50;4961469;28;20294;-28
2023/10/23 07:14:20;;;;;;;3.53;2.50;;;;;;;22.05;54.74;97351.06;4976718;28;20233;-26
2023/10/23 07:16:47;;;;;;;3.50;2.63;;;;;;;22.06;54.86;97337.41;4975379;28;20218;-29
2023/10/23 07:19:14;;;;;;;3.73;2.73;;;;;;;22.07;54.88;97341.69;4977736;28;20228;-26
2023/10/23 07:21:41;;;;;;;3.80;2.33;;;;;;;;;;4976001;28;20396;-31
2023/10/23 07:24:08;;;;;;;3.97;2.10;;;;;;;22.08;55.17;97339.19;4976623;28;20214;-26
2023/10/23 07:26:34;;;;;;;3.77;2.83;;;;;;;22.08;55.47;97333.22;4973718;28;20230;-31
2023/10/23 07:29:01;;;;;;;4.33;2.67;;;;;;;22.09;55.57;97332.38;4972723;28;20310;-32
2023/10/23 07:31:27;;;;;;;2.80;2.50;;;;;;;22.09;55.57;97335.81;4970672;28;20204;-26
2023/10/23 07:33:54;;;;;;;2.37;2.10;;;;;;;22.10;55.82;97328.97;4973089;28;20254;-26
2023/10/23 07:36:21;;;;;;;2.73;2.37;;;;;;;22.10;55.85;97326.41;4970644;28;20794;-26
2023/10/23 07:38:47;;;;;;;2.67;2.33;;;;;;;22.09;55.98;97317.91;4978844;28;20721;-31
2023/10/23 07:41:14;;;;;;;3.23;2.40;;;;;;;22.10;55.96;97308.50;4970467;28;20666;-26
2023/10/23 07:43:41;;;;;;;2.50;2.30;;;;;;;22.09;55.93;97309.34;4975224;28;20269;-26
2023/10/23 07:46:09;;;;;;;2.47;2.27;;;;;;;22.09;56.04;97310.22;4977368;28;20238;-28
2023/10/23 07:48:43;;;;;;;2.80;2.50;;;;;;;22.08;56.03;97303.34;4968719;28;20285;-26
2023/10/23 07:51:10;;;;;;;2.80;2.27;;;;;;;22.09;56.14;97305.09;4970203;28;20195;-27
2023/10/23 07:53:36;;;;;;;3.27;2.30;;;;;;;22.09;56.23;97293.97;4972782;28;20203;-26
2023/10/23 07:56:06;;;;;;;3.73;2.20;;;;;;;22.10;56.37;97305.94;4974255;28;20242;-26
2023/10/23 07:58:33;;;;;;;2.53;2.20;;;;;;;21.97;56.32;97280.91;4972038;28;20319;-27
2023/10/23 08:01:04;;;;;;;2.67;2.40;;;;;;;22.10;56.37;97305.94;4972995;28;20202;-30
2023/10/23 08:03:33;;;;;;;2.27;2.07;;;;;;;22.10;56.45;97305.94;4972285;28;20302;-29
2023/10/23 08:06:01;;;;;;;2.50;2.30;;;;;;;22.10;56.71;97303.38;4974363;28;20203;-26
2023/10/23 08:08:27;;;;;;;2.33;2.13;;;;;;;22.11;56.75;97308.53;4974301;28;20286;-32
2023/10/23 08:10:54;;;;;;;2.47;2.13;;;;;;;22.11;56.80;97312.81;4975185;28;20451;-28
2023/10/23 08:13:20;;;;;;;2.27;2.07;;;;;;;22.11;56.65;97316.22;4975585;28;20294;-29
2023/10/23 08:15:47;;;;;;;2.33;2.13;;;;;;;22.12;56.77;97319.66;4970403;28;20234;-27
2023/10/23 08:18:18;;;;;;;2.37;2.17;;;;;;;22.11;56.84;97310.25;4964936;28;20224;-26
2023/10/23 08:21:22;;;;;;;2.03;1.93;;;;;;;22.11;56.88;97308.53;4970251;28;20240;-30
2023/10/23 08:23:56;;;;;;;2.40;2.20;;;;;;;22.12;56.79;97314.53;4980577;28;20707;-32
2023/10/23 08:26:23;;;;;;;2.13;1.93;;;;;;;22.11;56.88;97312.81;4980473;28;20674;-27
2023/10/23 08:28:50;;;;;;;2.30;2.10;;;;;;;22.08;57.01;97311.03;4975990;28;20231;-28
2023/10/23 08:31:19;;;;;;;2.40;2.20;;;;;;;22.12;57.04;97310.28;4970575;28;20235;-33
2023/10/23 08:34:05;;;;;;;2.10;2.00;;;;;;;22.12;56.90;97299.16;4982145;28;20214;-26
2023/10/23 08:36:32;;;;;;;2.40;2.13;;;;;;;22.12;57.20;97300.06;4979803;28;20565;-30
2023/10/23 08:39:00;;;;;;;2.53;2.33;;;;;;;22.10;57.22;97294.03;4980170;28;20269;-30
2023/10/23 08:41:26;;;;;;;2.20;2.00;;;;;;;22.12;57.22;97292.38;4975693;28;20231;-27
2023/10/23 08:43:54;;;;;;;2.53;2.20;;;;;;;22.12;57.40;97282.13;4973915;28;20674;-30
2023/10/23 08:46:24;;;;;;;2.00;1.90;;;;;;;22.13;57.24;97267.63;4971294;28;20206;-26
2023/10/23 08:48:51;;;;;;;2.77;2.40;;;;;;;22.14;57.20;97261.69;4973965;28;20231;-26
2023/10/23 08:51:18;;;;;;;2.33;2.13;;;;;;;22.14;57.36;97261.69;4970098;28;20203;-28
2023/10/23 08:53:55;;;;;;;2.40;2.20;;;;;;;22.14;57.34;97259.13;4981683;28;20298;-26
2023/10/23 08:56:39;;;;;;;2.37;2.00;;;;;;;22.14;57.38;97248.91;4977221;28;20208;-29
2023/10/23 08:59:06;;;;;;;2.40;2.20;;;;;;;22.12;57.44;97248.00;4974391;28;20484;-28
2023/10/23 09:01:34;;;;;;;2.10;1.93;;;;;;;22.14;57.54;97244.63;4975939;28;20208;-27
2023/10/23 09:04:03;;;;;;;2.33;2.10;;;;;;;22.13;57.39;97255.69;4975948;28;20203;-27
2023/10/23 09:06:33;;;;;;;2.23;2.03;;;;;;;22.15;57.38;97255.72;4979855;28;20768;-28
2023/10/23 09:08:59;;;;;;;4.33;2.00;;;;;;;22.13;57.50;97253.13;4978912;28;20226;-28
2023/10/23 09:11:39;;;;;;;2.53;1.93;;;;;;;22.14;57.54;97254.84;4977778;28;20575;-27
2023/10/23 09:14:06;;;;;;;2.40;2.03;;;;;;;22.14;57.58;97254.84;4980890;28;20203;-29
2023/10/23 09:16:32;;;;;;;2.73;2.03;;;;;;;22.15;57.53;97255.72;4977101;28;20203;-29
2023/10/23 09:18:59;;;;;;;2.40;2.20;;;;;;;22.15;57.55;97255.72;4973866;28;20282;-27
2023/10/23 09:21:26;;;;;;;2.13;1.93;;;;;;;22.15;57.74;97248.94;4975093;28;20203;-28
2023/10/23 09:23:58;;;;;;;2.67;1.77;;;;;;;22.15;57.86;97245.50;4974664;28;20211;-26
2023/10/23 09:26:25;;;;;;;2.00;1.80;;;;;;;22.15;57.87;97240.38;4975483;28;20580;-26
2023/10/23 09:28:54;;;;;;;2.20;2.00;;;;;;;22.16;57.77;97236.97;4981101;28;20312;-29
2023/10/23 09:31:21;;;;;;;2.40;2.20;;;;;;;22.16;57.74;97239.53;4980609;28;20211;-28
2023/10/23 09:33:48;;;;;;;2.20;2.00;;;;;;;;;;4980265;28;20644;-30
2023/10/23 09:36:15;;;;;;;2.67;1.90;;;;;;;22.16;57.87;97242.09;4974996;28;20196;-36
2023/10/23 09:38:42;;;;;;;2.10;1.90;;;;;;;22.16;58.02;97231.84;4982227;28;20235;-27
2023/10/23 09:41:10;;;;;;;2.37;1.80;;;;;;;22.15;57.78;97225.03;4970256;28;20203;-26
2023/10/23 09:43:44;;;;;;;1.60;1.50;;;;;;;22.15;58.05;97225.91;4973299;28;20206;-27
2023/10/23 09:46:11;;;;;;;3.23;2.23;;;;;;;22.15;57.99;97225.03;4971500;28;20250;-26
2023/10/23 09:48:40;;;;;;;2.13;1.93;;;;;;;22.15;57.91;97225.03;4970969;28;20219;-31
2023/10/23 09:51:11;;;;;;;2.27;2.00;;;;;;;22.12;58.04;97222.38;4980737;28;20658;-27
2023/10/23 09:53:38;;;;;;;2.03;1.83;;;;;;;22.12;58.07;97230.94;4983719;28;20466;-26
2023/10/23 09:56:05;;;;;;;2.10;1.90;;;;;;;22.16;58.04;97229.28;4971182;28;20203;-26
2023/10/23 09:58:32;;;;;;;1.90;1.80;;;;;;;22.13;58.02;97219.00;4980207;28;20203;-29
2023/10/23 10:00:59;;;;;;;2.40;1.93;;;;;;;22.14;58.23;97213.06;4977503;28;20207;-27
2023/10/23 10:03:27;;;;;;;2.23;2.03;;;;;;;22.12;58.12;97217.28;4975563;28;20204;-27
2023/10/23 10:06:09;;;;;;;2.10;1.97;;;;;;;22.15;58.14;97225.91;4955359;28;20246;-27
2023/10/23 10:08:37;;;;;;;1.90;1.80;;;;;;;21.92;58.17;97192.94;4975048;28;20223;-31
2023/10/23 10:11:05;;;;;;;1.90;1.80;;;;;;;22.16;58.36;97234.41;4981465;28;20235;-36
2023/10/23 10:13:31;;;;;;;2.40;2.20;;;;;;;22.15;57.97;97233.56;4955259;28;20348;-27
2023/10/23 10:15:58;;;;;;;2.07;1.87;;;;;;;22.16;58.27;97229.28;4970561;28;20230;-26
2023/10/23 10:18:25;;;;;;;2.23;1.97;;;;;;;22.13;58.31;97221.56;4954664;28;20222;-32
2023/10/23 10:20:56;;;;;;;2.80;1.93;;;;;;;22.16;58.21;97219.06;4969722;28;20746;-27
2023/10/23 10:23:24;;;;;;;2.03;1.83;;;;;;;22.16;58.29;97226.75;4981154;28;20251;-30
2023/10/23 10:25:51;;;;;;;2.43;1.90;;;;;;;22.16;58.04;97214.81;4977625;28;20622;-27
2023/10/23 10:28:18;;;;;;;2.20;2.00;;;;;;;22.15;58.10;97207.97;4957697;28;20206;-28
2023/10/23 10:30:49;;;;;;;1.90;1.80;;;;;;;22.15;58.34;97214.78;4971508;28;20235;-33
2023/10/23 10:33:25;;;;;;;2.20;2.00;;;;;;;22.16;58.24;97208.81;4977306;28;20199;-32
2023/10/23 10:36:12;;;;;;;2.23;2.10;;;;;;;22.15;58.64;97210.53;4976411;28;20206;-29
2023/10/23 10:38:39;;;;;;;1.97;1.87;;;;;;;22.16;58.41;97204.56;4970065;28;20270;-27
2023/10/23 10:41:14;;;;;;;2.20;1.97;;;;;;;22.17;58.25;97197.78;4954733;28;20211;-29
2023/10/23 10:43:41;;;;;;;2.30;2.10;;;;;;;22.17;58.29;97205.44;4974351;28;20206;-26
2023/10/23 10:46:22;;;;;;;2.07;1.90;;;;;;;22.17;58.29;97198.63;4984037;28;20210;-29
2023/10/23 10:48:50;;;;;;;2.03;1.83;;;;;;;22.18;58.38;97190.13;4970400;28;20706;-27
2023/10/23 10:51:22;;;;;;;1.83;1.73;;;;;;;22.18;58.52;97181.56;4973852;28;20204;-26
2023/10/23 10:53:54;;;;;;;1.63;1.53;;;;;;;22.16;58.33;97175.56;4972825;28;20207;-30
2023/10/23 10:56:20;;;;;;;2.00;1.80;;;;;;;22.18;58.46;97168.78;4970833;28;20226;-30
2023/10/23 10:58:47;;;;;;;1.93;1.80;;;;;;;22.17;58.40;97149.97;4970542;28;20281;-27
2023/10/23 11:01:13;;;;;;;2.47;1.77;;;;;;;22.17;58.54;97144.88;4975819;28;20301;-30
2023/10/23 11:03:43;;;;;;;1.93;1.83;;;;;;;22.18;58.42;97143.19;4980578;28;20235;-30
2023/10/23 11:06:10;;;;;;;2.13;1.67;;;;;;;22.17;58.51;97144.03;4978702;28;20680;-26
2023/10/23 11:08:38;;;;;;;2.00;1.80;;;;;;;22.17;58.31;97157.66;4953479;28;20258;-28
2023/10/23 11:11:08;;;;;;;2.00;1.90;;;;;;;22.15;58.43;97144.00;4972406;28;20203;-29
2023/10/23 11:13:34;;;;;;;1.90;1.80;;;;;;;22.16;58.46;97150.81;4977220;28;20302;-26
2023/10/23 11:16:01;;;;;;;2.90;1.80;;;;;;;22.17;58.61;97154.25;4976078;28;20208;-34
2023/10/23 11:18:28;;;;;;;1.90;1.80;;;;;;;22.16;58.65;97152.50;4973452;28;20231;-30
2023/10/23 11:20:59;;;;;;;2.00;1.90;;;;;;;22.17;58.65;97151.69;4974492;28;20362;-28
2023/10/23 11:23:29;;;;;;;1.90;1.80;;;;;;;22.17;58.61;97139.75;4972599;28;20203;-27
2023/10/23 11:25:56;;;;;;;1.93;1.70;;;;;;;22.17;58.49;97142.31;4974290;28;20203;-30
2023/10/23 11:28:23;;;;;;;2.10;1.90;;;;;;;22.16;58.48;97140.59;4971260;28;20281;-28
2023/10/23 11:30:54;;;;;;;2.13;2.03;;;;;;;22.17;57.73;97133.78;5021026;22;20766;-30
2023/10/23 11:33:21;;;;;;;2.30;2.10;;;;;;;22.15;57.34;97118.41;5019777;28;20198;-24
2023/10/23 11:35:48;;;;;;;2.40;2.20;;;;;;;22.17;57.52;97114.16;5028382;28;20204;-24